Friday, February 23, 2018, 2:55 PM EST
Back to Local

KLOM, Philadelphia, Wings Field Airport

Location: Blue Bell, PA, United States Lat: 40.138
Local Time: 2:55 PM EST (19:55 GMT) Lon: -75.265
Time Zone: US/Eastern Elev: 301 ft

Show me the last for .
Show Coded

Time T Td Feel RH Dir Speed Gust Alt SLP Vis Weather Sky Remarks
2018-02-23 14:35 39 39 37 100 110° 3 - 30.43 - 2 OVC006 None
2018-02-23 14:15 39 39 35 100 100° 6 - 30.43 - 2 OVC006 None
2018-02-23 13:55 37 37 35 100 90° 3 - 30.46 - 1 OVC006 None
2018-02-23 13:35 37 37 - 100 - Calm - 30.46 - 1 OVC004 None
2018-02-23 13:15 37 37 34 100 90° 5 - 30.48 - 1 OVC006 None
2018-02-23 12:55 37 37 - 100 - Calm - 30.51 - 1 OVC006 None
2018-02-23 12:35 37 37 - 100 - Calm - 30.52 - 2 OVC006 None
2018-02-23 12:15 37 37 31 100 90° 8 - 30.51 - 4 OVC006 None
2018-02-23 11:55 37 37 31 100 100° 8 - 30.52 - 10 OVC006 None
2018-02-23 11:35 37 37 33 100 80° 6 - 30.55 - 10 OVC006 None
2018-02-23 11:15 36 36 32 100 80° 5 - 30.56 - 5 OVC006 None
2018-02-23 10:55 36 36 31 100 100° 6 - 30.58 - 5 OVC006 None
2018-02-23 10:35 36 36 31 100 70° 6 - 30.59 - 5 OVC006 None
2018-02-23 10:15 36 36 32 100 70° 5 - 30.59 - 7 OVC008 None
2018-02-23 09:55 36 36 32 100 80° 5 - 30.60 - 5 OVC008 None
2018-02-23 09:35 36 36 30 100 90° 7 - 30.61 - 4 OVC008 None
2018-02-23 09:15 36 36 32 100 80° 5 - 30.61 - 5 OVC008 None
2018-02-23 08:55 36 36 32 100 70° 5 - 30.61 - 7 OVC010 None
2018-02-23 08:35 36 34 33 93 70° 3 - 30.62 - 7 OVC010 None
2018-02-23 08:15 36 34 32 93 90° 5 - 30.62 - 10 OVC010 None
2018-02-23 07:55 36 34 32 93 80° 5 - 30.63 - 10 OVC010 None
2018-02-23 07:35 36 36 32 100 60° 5 - 30.63 - 10 OVC010 None
2018-02-23 07:15 36 36 32 100 70° 5 - 30.62 - 10 OVC008 None
2018-02-23 06:55 36 36 31 100 80° 6 - 30.61 - 7 OVC008 None
2018-02-23 06:35 36 36 31 100 90° 6 - 30.59 - 10 BKN012 OVC017 None
2018-02-23 06:15 36 36 29 100 90° 8 - 30.61 - 10 OVC014 None
2018-02-23 05:55 36 36 29 100 80° 8 - 30.62 - 5 BKN010 OVC014 None
2018-02-23 05:35 36 36 29 100 80° 8 - 30.61 - 5 BKN008 OVC012 None
2018-02-23 05:15 36 36 33 100 70° 3 - 30.62 - 10 BKN008 OVC012 None
2018-02-23 04:55 36 36 29 100 80° 8 - 30.62 - 5 OVC008 None
2018-02-23 04:35 36 36 32 100 80° 5 - 30.63 - 10 OVC008 None
2018-02-23 04:15 36 36 30 100 80° 7 - 30.61 - 10 OVC008 None
2018-02-23 03:55 36 36 31 100 80° 6 - 30.61 - 10 OVC008 None
2018-02-23 03:35 36 36 30 100 90° 7 - 30.62 - 10 OVC008 None
2018-02-23 03:15 36 36 30 100 70° 7 - 30.65 - 10 OVC008 None
2018-02-23 02:55 36 36 28 100 60° 10 - 30.62 - 10 OVC010 None
2018-02-23 02:35 36 36 29 100 70° 8 - 30.63 - 10 OVC010 None
2018-02-23 02:15 36 36 31 100 80° 6 - 30.65 - 10 OVC008 None
2018-02-23 01:55 36 36 32 100 70° 5 - 30.66 - 10 OVC008 None
2018-02-23 01:35 36 36 31 100 70° 6 - 30.64 - 10 OVC008 None
2018-02-23 01:15 36 36 30 100 80° 7 - 30.64 - 10 OVC010 None
2018-02-23 00:55 36 36 31 100 70° 6 - 30.65 - 10 BKN008 OVC014 None
2018-02-23 00:35 36 36 32 100 80° 5 - 30.65 - 7 SCT008 OVC012 None
2018-02-23 00:15 36 36 31 100 90° 6 - 30.65 - 7 BKN006 OVC012 None
2018-02-22 23:55 36 36 32 100 70° 5 - 30.65 - 3 OVC006 None
2018-02-22 23:35 36 36 33 100 60° 3 - 30.65 - 4 BKN008 OVC011 None
2018-02-22 23:15 36 36 33 100 60° 3 - 30.66 - 3 OVC005 None
2018-02-22 22:55 36 36 - 100 - Calm - 30.66 - 2 BKN005 OVC008 None
2018-02-22 22:35 36 36 32 100 60° 5 - 30.64 - 2 BKN005 OVC010 None
2018-02-22 22:15 36 36 - 100 - Calm - 30.65 - 2 BKN007 OVC011 None
2018-02-22 21:55 36 36 31 100 60° 6 - 30.65 - 2 BKN006 OVC010 None
2018-02-22 21:35 36 36 - 100 - Calm - 30.65 - 2 OVC006 None
2018-02-22 21:15 36 36 31 100 50° 6 - 30.63 - 4 BKN006 OVC011 None
2018-02-22 20:55 37 36 32 93 70° 7 - 30.63 - 10 OVC009 None
2018-02-22 20:35 37 36 31 93 70° 9 - 30.63 - 10 OVC007 None
2018-02-22 20:15 36 36 31 100 60° 6 - 30.61 - 10 OVC007 None
2018-02-22 19:55 37 37 31 100 70° 8 - 30.61 - 7 OVC007 None
2018-02-22 19:35 37 37 32 100 80° 7 - 30.61 - 5 OVC007 None
2018-02-22 19:15 37 37 31 100 70° 8 - 30.61 - 7 BKN009 OVC013 None
2018-02-22 18:55 37 37 34 100 70° 5 - 30.61 - 10 SCT009 BKN013 OVC041 None
2018-02-22 18:35 37 37 35 100 60° 3 - 30.61 - 10 OVC041 None
2018-02-22 18:15 37 36 34 93 70° 5 - 30.62 - 10 OVC041 None
2018-02-22 17:55 37 36 32 93 70° 7 - 30.62 - 10 SCT010 SCT017 OVC041 None
2018-02-22 17:35 37 37 33 100 50° 6 - 30.63 - 3 SCT008 BKN012 OVC024 None
2018-02-22 17:15 37 37 32 100 30° 7 - 30.63 - 3 SCT008 BKN012 OVC024 None
2018-02-22 16:55 37 37 33 100 30° 6 - 30.62 - 4 SCT006 BKN011 OVC028 None
2018-02-22 16:35 37 37 35 100 60° 3 - 30.61 - 3 SCT008 BKN026 OVC032 None
2018-02-22 16:15 37 37 31 100 40° 9 - 30.60 - 2 SCT010 BKN015 OVC027 None
2018-02-22 15:55 37 37 33 100 30° 6 - 30.58 - 2 BKN007 BKN015 OVC022 None
2018-02-22 15:35 39 39 34 100 30° 7 - 30.57 - 2 SCT007 OVC011 None
2018-02-22 15:15 39 37 35 93 40° 6 - 30.55 - 3 SCT014 BKN022 OVC027 None

Support USWX by starting your Amazon purchase here.